Time;durP1;ratioP1;P1;durP2;ratioP2;P2;SDS_P1;SDS_P2;PMS_P1;PMS_P2;Temp;Humidity;BMP_temperature;BMP_pressure;BME280_temperature;BME280_humidity;BME280_pressure;Samples;Min_cycle;Max_cycle;Signal;HPM_P1;HPM_P2
2024/04/12 00:02:04;;;;;;;2.58;2.17;;;20.90;63.80;;;;;;11082073;26;20005;-55
2024/04/12 00:07:13;;;;;;;2.22;2.03;;;20.90;63.90;;;;;;11135124;26;20460;-54
2024/04/12 00:12:17;;;;;;;2.17;1.98;;;20.80;63.90;;;;;;11135072;26;20005;-53
2024/04/12 00:17:20;;;;;;;2.38;2.08;;;20.80;64.00;;;;;;11135713;26;20055;-50
2024/04/12 00:22:29;;;;;;;2.40;2.20;;;20.80;63.90;;;;;;11135097;26;20451;-53
2024/04/12 00:27:33;;;;;;;2.35;2.10;;;20.80;64.20;;;;;;11134809;26;20081;-55
2024/04/12 00:32:42;;;;;;;2.33;2.13;;;20.80;65.10;;;;;;11133738;26;20032;-53
2024/04/12 00:37:52;;;;;;;2.17;2.03;;;20.80;64.40;;;;;;11134510;26;20000;-54
2024/04/12 00:42:57;;;;;;;2.10;1.90;;;20.80;64.60;;;;;;11134228;26;20000;-51
2024/04/12 00:48:00;;;;;;;2.25;2.08;;;20.80;64.70;;;;;;11134118;26;20077;-49
2024/04/12 00:53:09;;;;;;;2.72;2.33;;;20.70;64.70;;;;;;11134192;26;20012;-52
2024/04/12 00:58:15;;;;;;;2.22;2.00;;;20.70;64.80;;;;;;11134309;26;20010;-50
2024/04/12 01:03:18;;;;;;;2.38;2.15;;;20.80;65.20;;;;;;11134175;26;20039;-50
2024/04/12 01:08:26;;;;;;;2.20;1.88;;;20.70;65.60;;;;;;11133696;26;20019;-51
2024/04/12 01:13:31;;;;;;;2.30;2.10;;;20.70;66.30;;;;;;11133423;26;19997;-54
2024/04/12 01:18:35;;;;;;;2.47;2.13;;;20.70;67.20;;;;;;11132830;26;20053;-53
2024/04/12 01:23:43;;;;;;;2.40;2.13;;;20.70;66.70;;;;;;11133602;26;20000;-51
2024/04/12 01:28:49;;;;;;;2.40;2.20;;;20.70;65.90;;;;;;11132951;26;20031;-53
2024/04/12 01:33:53;;;;;;;2.10;1.95;;;20.60;64.10;;;;;;11132451;26;20008;-50
2024/04/12 01:38:57;;;;;;;2.05;1.92;;;20.50;63.70;;;;;;11132546;26;20000;-51
2024/04/12 01:44:06;;;;;;;2.00;1.90;;;20.50;63.70;;;;;;11138054;26;20091;-53
2024/04/12 01:49:10;;;;;;;2.25;2.05;;;20.50;63.80;;;;;;11139440;26;20012;-53
2024/04/12 01:54:17;;;;;;;2.20;2.00;;;20.50;63.60;;;;;;11139021;26;20465;-53
2024/04/12 01:59:23;;;;;;;2.10;1.90;;;20.50;63.60;;;;;;11139242;26;20012;-51
2024/04/12 02:04:30;;;;;;;2.00;1.90;;;20.50;63.70;;;;;;11138820;26;20368;-54
2024/04/12 02:09:34;;;;;;;2.03;1.92;;;20.50;63.60;;;;;;11139020;26;20001;-52
2024/04/12 02:14:42;;;;;;;1.80;1.70;;;20.50;63.60;;;;;;11138695;26;20036;-53
2024/04/12 02:19:46;;;;;;;2.10;1.90;;;20.40;63.60;;;;;;11138325;26;20008;-54
2024/04/12 02:24:51;;;;;;;2.20;2.00;;;20.40;63.60;;;;;;11138343;26;20000;-54
2024/04/12 02:29:57;;;;;;;2.15;1.95;;;20.40;63.70;;;;;;11138348;26;20000;-54
2024/04/12 02:35:03;;;;;;;2.17;1.98;;;20.30;63.70;;;;;;11137802;26;20014;-52
2024/04/12 02:40:15;;;;;;;1.92;1.83;;;20.30;63.70;;;;;;11138034;26;20027;-54
2024/04/12 02:45:21;;;;;;;2.10;1.80;;;20.30;63.70;;;;;;11138420;26;20004;-52
2024/04/12 02:50:24;;;;;;;1.77;1.67;;;20.30;63.60;;;;;;11137899;26;20004;-52
2024/04/12 02:55:30;;;;;;;2.05;1.85;;;20.30;63.70;;;;;;11137062;26;20015;-54
2024/04/12 03:00:37;;;;;;;2.00;1.80;;;20.30;63.80;;;;;;11137658;26;20361;-51
2024/04/12 03:05:42;;;;;;;2.25;2.05;;;20.30;64.20;;;;;;11137101;26;20011;-53
2024/04/12 03:10:45;;;;;;;2.15;1.90;;;20.40;63.50;;;;;;11137718;26;20020;-54
2024/04/12 03:15:51;;;;;;;2.17;1.98;;;20.40;63.10;;;;;;11137149;26;20000;-50
2024/04/12 03:20:54;;;;;;;2.30;2.10;;;20.50;63.00;;;;;;11137128;26;20011;-50
2024/04/12 03:25:58;;;;;;;1.95;1.85;;;20.60;62.90;;;;;;11136743;26;20008;-54
2024/04/12 03:31:08;;;;;;;2.00;1.90;;;20.60;62.70;;;;;;11136896;26;20000;-51
2024/04/12 03:36:53;;;;;;;2.08;1.90;;;20.70;62.60;;;;;;11136559;26;19996;-52
2024/04/12 03:41:56;;;;;;;2.00;1.80;;;20.70;62.40;;;;;;11136618;26;20361;-52
2024/04/12 03:47:08;;;;;;;1.92;1.83;;;20.70;62.40;;;;;;11136508;26;20014;-50
2024/04/12 03:52:14;;;;;;;1.95;1.85;;;20.80;62.30;;;;;;11136090;26;20011;-53
2024/04/12 03:57:17;;;;;;;2.00;1.90;;;20.90;61.90;;;;;;11136044;26;20457;-52
2024/04/12 04:02:24;;;;;;;1.80;1.70;;;21.10;61.30;;;;;;11135739;26;20377;-52
2024/04/12 04:07:28;;;;;;;2.13;1.92;;;21.20;61.00;;;;;;11134519;26;20015;-57
2024/04/12 04:12:32;;;;;;;1.98;1.88;;;21.30;61.00;;;;;;11135651;26;20012;-57
2024/04/12 04:17:38;;;;;;;1.98;1.88;;;21.20;60.90;;;;;;11135287;26;20014;-57
2024/04/12 04:22:42;;;;;;;1.80;1.70;;;21.20;60.90;;;;;;11135328;26;20350;-56
2024/04/12 04:27:45;;;;;;;1.95;1.80;;;21.20;60.90;;;;;;11135507;26;20420;-56
2024/04/12 04:32:52;;;;;;;2.25;2.00;;;21.20;61.20;;;;;;11134789;26;20014;-54
2024/04/12 04:37:56;;;;;;;2.10;1.90;;;21.20;61.10;;;;;;11134864;26;20446;-54
2024/04/12 04:43:00;;;;;;;2.15;2.00;;;21.20;61.20;;;;;;11134557;26;20074;-56
2024/04/12 04:48:10;;;;;;;1.90;1.80;;;21.30;61.00;;;;;;11134928;26;20014;-55
2024/04/12 04:53:14;;;;;;;1.83;1.70;;;21.40;61.00;;;;;;11134564;26;20012;-51
2024/04/12 04:58:17;;;;;;;1.90;1.70;;;21.50;61.00;;;;;;11134254;26;20012;-56
2024/04/12 05:03:23;;;;;;;2.30;1.90;;;21.60;61.20;;;;;;11134059;26;20353;-54
2024/04/12 05:08:26;;;;;;;1.73;1.63;;;21.50;61.10;;;;;;11134095;26;20018;-53
2024/04/12 05:13:30;;;;;;;1.70;1.60;;;21.40;61.60;;;;;;11131819;26;20000;-54
2024/04/12 05:18:37;;;;;;;1.65;1.55;;;21.30;61.80;;;;;;11129979;26;20799;-54
2024/04/12 05:23:40;;;;;;;2.88;1.70;;;21.30;61.80;;;;;;11133701;26;20000;-50
2024/04/12 05:28:47;;;;;;;5.22;1.70;;;21.40;62.10;;;;;;11132209;26;20396;-53
2024/04/12 05:33:55;;;;;;;1.50;1.40;;;21.40;61.90;;;;;;11131561;26;20023;-50
2024/04/12 05:39:08;;;;;;;2.65;1.60;;;21.40;62.10;;;;;;11131462;26;20122;-52
2024/04/12 05:44:11;;;;;;;1.70;1.50;;;21.40;62.10;;;;;;11132034;26;20004;-51
2024/04/12 05:49:20;;;;;;;4.53;1.80;;;21.40;62.20;;;;;;11131811;26;20008;-51
2024/04/12 05:54:23;;;;;;;1.58;1.48;;;21.50;62.10;;;;;;11132420;26;20403;-49
2024/04/12 05:59:27;;;;;;;2.33;1.40;;;21.50;62.30;;;;;;11132727;26;20022;-51
2024/04/12 06:04:36;;;;;;;14.93;1.63;;;21.60;62.50;;;;;;11129317;26;20008;-50
2024/04/12 06:09:39;;;;;;;10.27;1.77;;;21.70;63.10;;;;;;11132356;26;20015;-51
2024/04/12 06:14:42;;;;;;;30.33;3.67;;;21.70;63.00;;;;;;11131782;26;20004;-50
2024/04/12 06:19:50;;;;;;;11.90;4.10;;;21.70;63.40;;;;;;11131390;26;20004;-53
2024/04/12 06:24:54;;;;;;;8.82;4.55;;;21.80;62.90;;;;;;11130262;26;20353;-51
2024/04/12 06:29:57;;;;;;;13.43;4.57;;;21.60;61.70;;;;;;11137220;26;20000;-49
2024/04/12 06:35:20;;;;;;;6.97;4.35;;;21.50;62.50;;;;;;11137387;26;20016;-51
2024/04/12 06:40:28;;;;;;;7.05;4.00;;;21.40;62.90;;;;;;11135658;26;20006;-50
2024/04/12 06:45:31;;;;;;;7.47;4.50;;;21.50;62.90;;;;;;11135660;26;20000;-53
2024/04/12 06:50:37;;;;;;;6.40;4.10;;;21.40;62.90;;;;;;11136854;26;20465;-54
2024/04/12 06:55:46;;;;;;;8.52;4.53;;;21.40;62.80;;;;;;11137973;26;20015;-55
2024/04/12 07:00:55;;;;;;;6.70;4.13;;;21.40;63.00;;;;;;11137634;26;20000;-54
2024/04/12 07:06:01;;;;;;;5.85;4.03;;;21.40;62.90;;;;;;11137626;26;20102;-52
2024/04/12 07:11:07;;;;;;;5.05;3.78;;;21.40;62.80;;;;;;11137945;26;20000;-54
2024/04/12 07:16:10;;;;;;;6.35;3.67;;;21.40;62.70;;;;;;11136921;26;20078;-53
2024/04/12 07:21:22;;;;;;;19.20;3.83;;;21.40;62.60;;;;;;11137506;26;20000;-53
2024/04/12 07:26:27;;;;;;;36.85;6.38;;;21.50;62.70;;;;;;11136544;26;20032;-51
2024/04/12 07:31:34;;;;;;;29.42;5.63;;;21.50;63.90;;;;;;11130554;26;20353;-53
2024/04/12 07:36:40;;;;;;;29.70;5.30;;;21.50;64.00;;;;;;11135945;26;20016;-49
2024/04/12 07:41:48;;;;;;;16.45;5.63;;;21.50;63.90;;;;;;11135759;26;20015;-51
2024/04/12 07:46:51;;;;;;;21.67;4.60;;;21.50;63.80;;;;;;11136059;26;20354;-49
2024/04/12 07:51:58;;;;;;;17.98;4.70;;;21.50;63.40;;;;;;11135670;26;20453;-51
2024/04/12 07:57:13;;;;;;;17.15;4.50;;;21.50;63.10;;;;;;11135798;26;20445;-51
2024/04/12 08:02:17;;;;;;;17.70;4.72;;;21.50;63.30;;;;;;11133043;26;20346;-52
2024/04/12 08:07:29;;;;;;;25.70;4.90;;;21.70;64.30;;;;;;11135707;26;20000;-52
2024/04/12 08:12:33;;;;;;;22.42;5.22;;;21.70;64.60;;;;;;11135734;26;20012;-49
2024/04/12 08:17:39;;;;;;;15.32;4.93;;;21.70;64.00;;;;;;11135336;26;20759;-51
2024/04/12 08:22:46;;;;;;;14.05;5.97;;;21.60;64.10;;;;;;11132219;26;20014;-49
2024/04/12 08:27:54;;;;;;;10.85;6.07;;;21.60;66.20;;;;;;11119484;26;20008;-49
2024/04/12 08:33:02;;;;;;;10.30;6.07;;;21.50;65.70;;;;;;11086060;26;20299;-51
2024/04/12 08:38:12;;;;;;;9.30;6.13;;;21.40;65.30;;;;;;11062660;26;20012;-50
2024/04/12 08:43:15;;;;;;;9.20;6.00;;;21.40;65.10;;;;;;11062305;26;20020;-50
2024/04/12 08:48:22;;;;;;;7.80;6.00;;;21.40;64.80;;;;;;11062620;26;20044;-51
2024/04/12 08:53:29;;;;;;;7.13;5.72;;;21.30;64.40;;;;;;11061377;26;20005;-50
2024/04/12 08:58:32;;;;;;;6.25;5.25;;;21.20;63.40;;;;;;11062031;26;20021;-50
2024/04/12 09:03:40;;;;;;;5.88;4.70;;;21.20;62.90;;;;;;11061377;26;20012;-49
2024/04/12 09:08:47;;;;;;;5.75;4.95;;;21.20;62.50;;;;;;11061604;26;20435;-50
2024/04/12 09:13:50;;;;;;;6.03;4.85;;;21.20;62.20;;;;;;11062070;26;20459;-49
2024/04/12 09:18:53;;;;;;;6.53;4.55;;;21.20;61.80;;;;;;11061305;26;20037;-50
2024/04/12 09:24:09;;;;;;;5.13;4.60;;;21.20;61.30;;;;;;11061065;26;19997;-49
2024/04/12 09:29:17;;;;;;;7.40;4.57;;;21.10;60.90;;;;;;11060986;26;20052;-51
2024/04/12 09:34:35;;;;;;;5.15;3.85;;;21.10;60.50;;;;;;11060944;26;20012;-51
2024/04/12 09:40:03;;;;;;;5.28;4.07;;;21.10;60.50;;;;;;11060639;26;20042;-52
2024/04/12 09:45:09;;;;;;;5.68;3.75;;;21.10;60.30;;;;;;11060578;26;20002;-52
2024/04/12 10:38:27;;;;;;;13.73;2.88;;;21.50;60.70;;;;;;11143854;26;20008;-55
2024/04/12 10:43:35;;;;;;;7.35;2.58;;;21.70;61.80;;;;;;11137759;26;20346;-54
2024/04/12 10:48:38;;;;;;;8.90;2.72;;;21.70;61.30;;;;;;11137884;26;20018;-49
2024/04/12 10:53:46;;;;;;;4.35;2.78;;;21.70;61.90;;;;;;11137787;26;20015;-49
2024/04/12 10:58:56;;;;;;;9.65;2.65;;;21.70;61.90;;;;;;11138242;26;20014;-51
2024/04/12 11:04:02;;;;;;;7.75;2.88;;;21.70;62.40;;;;;;11137126;26;20014;-50
2024/04/12 11:09:06;;;;;;;7.95;2.38;;;21.70;62.20;;;;;;11136613;26;20035;-51
2024/04/12 11:14:27;;;;;;;9.45;2.33;;;21.90;63.00;;;;;;11085511;26;20005;-52
2024/04/12 11:35:34;;;;;;;2.65;1.75;;;22.10;62.50;;;;;;11069942;26;20036;-51
2024/04/12 11:40:38;;;;;;;3.20;1.73;;;22.10;62.30;;;;;;11087193;26;20000;-54
2024/04/12 11:45:44;;;;;;;2.78;1.83;;;22.20;62.50;;;;;;11136869;26;20015;-52
2024/04/12 11:50:49;;;;;;;2.92;1.90;;;22.20;62.30;;;;;;11136988;26;20486;-53
2024/04/12 11:55:52;;;;;;;5.57;1.80;;;22.20;62.20;;;;;;11135724;26;20106;-52
2024/04/12 12:00:58;;;;;;;3.13;1.90;;;22.20;62.30;;;;;;11132806;26;20004;-49
2024/04/12 12:06:09;;;;;;;4.35;2.00;;;22.20;63.00;;;;;;11132304;26;20004;-51
2024/04/12 12:11:12;;;;;;;10.00;2.80;;;22.20;61.70;;;;;;11132346;26;20020;-51
2024/04/12 12:16:18;;;;;;;6.50;2.30;;;22.20;62.20;;;;;;11076676;26;20009;-53
2024/04/12 12:21:23;;;;;;;6.22;2.13;;;22.20;62.70;;;;;;11143851;26;20015;-55
2024/04/12 12:26:26;;;;;;;6.00;2.20;;;22.10;62.10;;;;;;11143178;26;20772;-54
2024/04/12 12:31:32;;;;;;;5.07;2.38;;;22.10;62.20;;;;;;11135273;26;20015;-55
2024/04/12 12:36:35;;;;;;;5.78;2.13;;;22.10;62.20;;;;;;11136295;26;20004;-54
2024/04/12 12:41:45;;;;;;;9.80;2.10;;;22.10;62.40;;;;;;11136232;26;20000;-51
2024/04/12 12:46:51;;;;;;;8.30;2.15;;;22.00;62.60;;;;;;11136316;26;19996;-53
2024/04/12 12:51:54;;;;;;;5.00;2.10;;;22.00;63.10;;;;;;11137665;26;20016;-49
2024/04/12 12:56:57;;;;;;;3.80;1.80;;;22.10;62.50;;;;;;11135701;26;20349;-50
2024/04/12 13:02:03;;;;;;;3.60;2.10;;;22.10;62.40;;;;;;11135780;26;19996;-49
2024/04/12 13:07:07;;;;;;;5.25;2.08;;;22.10;62.40;;;;;;11135490;26;20015;-50
2024/04/12 13:12:11;;;;;;;5.13;1.70;;;22.10;62.40;;;;;;11135837;26;20016;-52
2024/04/12 13:17:23;;;;;;;5.07;2.70;;;22.20;61.50;;;;;;11135829;26;20050;-51
2024/04/12 13:22:27;;;;;;;8.75;4.72;;;22.30;59.80;;;;;;11136013;26;20029;-50
2024/04/12 13:27:30;;;;;;;5.22;3.92;;;22.20;56.40;;;;;;11135722;26;20014;-50
2024/04/12 13:32:39;;;;;;;7.63;4.57;;;22.20;56.80;;;;;;11135460;26;20012;-51
2024/04/12 13:37:42;;;;;;;5.78;4.30;;;22.30;55.80;;;;;;11139052;26;20019;-51
2024/04/12 13:42:49;;;;;;;6.97;4.55;;;22.30;55.30;;;;;;11142266;26;19996;-52
2024/04/12 13:53:17;;;;;;;5.72;5.03;;;22.30;54.30;;;;;;11147967;26;20012;-50
2024/04/12 13:58:21;;;;;;;5.45;4.70;;;22.50;52.70;;;;;;11141292;26;20023;-50
2024/04/12 14:03:27;;;;;;;9.60;4.93;;;22.30;53.60;;;;;;11141794;26;19997;-51
2024/04/12 14:08:30;;;;;;;7.13;5.15;;;22.30;53.70;;;;;;11142166;26;20011;-50
2024/04/12 14:13:33;;;;;;;7.15;4.10;;;22.20;53.80;;;;;;11141913;26;20098;-49
2024/04/12 14:18:40;;;;;;;7.55;5.15;;;22.30;54.20;;;;;;11141488;26;20011;-55
2024/04/12 14:23:44;;;;;;;7.97;5.18;;;22.20;53.60;;;;;;11141112;26;20011;-52
2024/04/12 14:28:47;;;;;;;7.50;5.32;;;22.10;53.90;;;;;;11141197;26;20012;-53
2024/04/12 14:33:54;;;;;;;5.82;5.20;;;22.10;54.50;;;;;;11140722;26;20011;-53
2024/04/12 14:38:57;;;;;;;5.35;4.70;;;22.10;54.30;;;;;;11140851;26;20388;-51
2024/04/12 14:44:00;;;;;;;8.45;4.82;;;22.20;54.80;;;;;;11140597;26;20014;-54
2024/04/12 14:49:06;;;;;;;6.22;3.83;;;22.30;54.60;;;;;;11139808;26;20008;-53
2024/04/12 14:54:09;;;;;;;9.05;4.15;;;22.30;55.10;;;;;;11140456;26;20000;-51
2024/04/12 14:59:13;;;;;;;8.68;4.03;;;22.30;55.40;;;;;;11140207;26;20000;-51
2024/04/12 15:52:11;;;;;;;16.38;2.97;;;22.60;57.00;;;;;;11144188;26;20004;-54
2024/04/12 16:13:15;;;;;;;10.85;3.53;;;22.90;58.30;;;;;;11143860;26;20466;-53
2024/04/12 16:18:19;;;;;;;13.82;3.10;;;22.90;58.80;;;;;;11138362;26;20011;-55
2024/04/12 16:23:25;;;;;;;21.20;3.70;;;22.90;59.10;;;;;;11138372;26;20011;-53
2024/04/12 16:28:28;;;;;;;21.20;3.22;;;22.80;59.10;;;;;;11138268;26;20074;-56
2024/04/12 16:33:32;;;;;;;10.77;2.67;;;22.80;58.30;;;;;;11138524;26;20008;-51
2024/04/12 16:38:37;;;;;;;13.60;2.78;;;22.80;57.00;;;;;;11138215;26;19996;-50
2024/04/12 16:43:41;;;;;;;12.07;4.05;;;22.80;57.00;;;;;;11137942;26;20000;-49
2024/04/12 16:48:45;;;;;;;12.85;3.45;;;22.60;54.80;;;;;;11138006;26;20082;-47
2024/04/12 16:53:51;;;;;;;14.85;3.05;;;22.40;57.20;;;;;;11137559;26;20000;-51
2024/04/12 16:58:56;;;;;;;10.57;3.58;;;22.60;58.00;;;;;;11137617;26;20008;-48
2024/04/12 17:04:00;;;;;;;9.75;2.95;;;22.50;57.40;;;;;;11137514;26;20357;-50
2024/04/12 17:09:09;;;;;;;7.28;2.60;;;22.50;57.90;;;;;;11137180;26;20008;-48
2024/04/12 17:14:12;;;;;;;8.10;2.60;;;22.50;57.60;;;;;;11136518;26;20016;-48
2024/04/12 17:19:16;;;;;;;8.73;2.67;;;22.40;57.60;;;;;;11136999;26;20504;-48
2024/04/12 17:24:23;;;;;;;8.18;2.58;;;22.50;58.20;;;;;;11136140;26;20473;-51
2024/04/12 17:29:26;;;;;;;11.05;3.08;;;22.60;58.20;;;;;;11136746;26;20010;-51
2024/04/12 17:34:29;;;;;;;13.52;3.03;;;22.60;58.30;;;;;;11136330;26;19997;-49
2024/04/12 17:39:35;;;;;;;18.33;3.60;;;22.50;58.30;;;;;;11135924;26;20008;-47
2024/04/12 17:44:40;;;;;;;16.75;3.95;;;22.40;58.40;;;;;;11135615;26;20588;-48
2024/04/12 17:49:43;;;;;;;11.77;2.88;;;22.50;58.30;;;;;;11135535;26;19996;-48
2024/04/12 17:54:49;;;;;;;11.48;2.97;;;22.50;58.70;;;;;;11135249;26;20000;-47
2024/04/12 17:59:53;;;;;;;10.85;3.50;;;22.60;59.10;;;;;;11135313;26;20012;-48
2024/04/12 18:04:56;;;;;;;8.77;2.65;;;22.70;59.30;;;;;;11135125;26;20015;-49
2024/04/12 18:10:02;;;;;;;10.73;2.90;;;22.70;59.80;;;;;;11134550;26;20010;-49
2024/04/12 18:15:07;;;;;;;14.98;3.33;;;22.60;59.10;;;;;;11134349;26;20000;-58
2024/04/12 18:20:10;;;;;;;14.05;3.58;;;22.70;59.80;;;;;;11132338;26;20043;-54
2024/04/12 18:25:16;;;;;;;16.17;3.40;;;22.80;60.20;;;;;;11138437;26;19996;-58
2024/04/12 18:30:19;;;;;;;8.50;3.30;;;22.80;60.60;;;;;;11141719;26;20367;-58
2024/04/12 18:35:28;;;;;;;8.50;2.63;;;22.90;60.90;;;;;;11140905;26;20004;-56
2024/04/12 18:45:53;;;;;;;;;;;23.10;60.90;;;;;;11146744;26;20004;-61
2024/04/12 18:50:57;;;;;;;10.35;2.72;;;23.20;61.30;;;;;;11141377;26;19933;-61
2024/04/12 18:56:03;;;;;;;10.23;2.78;;;23.10;60.50;;;;;;11140873;26;20385;-60
2024/04/12 19:01:06;;;;;;;12.10;3.00;;;23.00;60.50;;;;;;11140741;26;20015;-59
2024/04/12 19:06:10;;;;;;;12.05;2.53;;;;;;;;;;11140439;26;20008;-42
2024/04/12 19:11:15;;;;;;;7.03;2.60;;;24.00;69.90;;;;;;11140561;26;20011;-42
2024/04/12 19:16:19;;;;;;;10.05;2.78;;;25.10;69.10;;;;;;11140668;26;20012;-42
2024/04/12 19:21:24;;;;;;;11.35;2.80;;;25.60;66.80;;;;;;11137585;26;20514;-41
2024/04/12 19:26:30;;;;;;;9.98;2.85;;;25.80;63.70;;;;;;11139755;26;20004;-41
2024/04/12 19:31:34;;;;;;;17.13;3.08;;;26.10;64.20;;;;;;11139901;26;20074;-41
2024/04/12 19:36:42;;;;;;;11.38;2.45;;;26.00;63.80;;;;;;11139465;26;19996;-42
2024/04/12 19:41:48;;;;;;;23.17;3.08;;;25.90;61.40;;;;;;11139705;26;20012;-41
2024/04/12 19:46:52;;;;;;;23.65;2.80;;;25.90;61.50;;;;;;11139474;26;20000;-41
2024/04/12 19:51:55;;;;;;;14.30;2.60;;;25.70;61.60;;;;;;11139338;26;20012;-42
2024/04/12 19:57:03;;;;;;;7.72;2.20;;;25.90;59.20;;;;;;11139174;26;20004;-41
2024/04/12 20:02:06;;;;;;;19.90;2.83;;;26.10;56.70;;;;;;11138471;26;19996;-44
2024/04/12 20:07:09;;;;;;;9.02;2.83;;;26.30;55.60;;;;;;11138449;26;19996;-42
2024/04/12 20:12:20;;;;;;;17.55;3.22;;;26.30;54.80;;;;;;11137806;26;20012;-41
2024/04/12 20:17:23;;;;;;;12.50;3.23;;;26.20;53.90;;;;;;11138573;26;20004;-44
2024/04/12 20:22:26;;;;;;;9.15;2.75;;;25.60;53.50;;;;;;11138639;26;20012;-42
2024/04/12 20:27:32;;;;;;;9.00;2.92;;;25.40;53.30;;;;;;11137922;26;20010;-42
2024/04/12 20:32:36;;;;;;;8.10;2.80;;;25.40;53.60;;;;;;11137997;26;19996;-41
2024/04/12 20:37:40;;;;;;;6.88;2.13;;;25.20;53.80;;;;;;11137526;26;20036;-41
2024/04/12 20:42:45;;;;;;;10.20;2.70;;;25.20;53.80;;;;;;11137755;26;19996;-42
2024/04/12 20:47:49;;;;;;;9.77;2.42;;;25.30;53.60;;;;;;11136601;26;20464;-41
2024/04/12 20:52:52;;;;;;;7.57;2.55;;;25.40;53.30;;;;;;11137550;26;20000;-41
2024/04/12 20:57:58;;;;;;;9.88;2.47;;;25.10;54.00;;;;;;11137332;26;20004;-42
2024/04/12 21:03:01;;;;;;;7.05;2.45;;;25.00;54.10;;;;;;11137088;26;20008;-41
2024/04/12 21:08:05;;;;;;;7.93;2.92;;;25.30;53.40;;;;;;11137126;26;20011;-41
2024/04/12 21:13:11;;;;;;;10.05;2.90;;;25.50;52.70;;;;;;11136815;26;19996;-41
2024/04/12 21:18:14;;;;;;;5.22;2.20;;;25.70;52.40;;;;;;11136727;26;20412;-41
2024/04/12 21:23:17;;;;;;;6.43;2.72;;;25.50;52.60;;;;;;11136630;26;19996;-41
2024/04/12 21:28:24;;;;;;;4.97;2.30;;;25.40;52.60;;;;;;11136316;26;20012;-41
2024/04/12 21:33:29;;;;;;;5.38;2.55;;;25.30;52.90;;;;;;11136177;26;20004;-42
2024/04/12 21:38:33;;;;;;;6.65;2.33;;;25.30;52.80;;;;;;11136104;26;20015;-41
2024/04/12 21:43:40;;;;;;;3.65;2.17;;;25.00;53.60;;;;;;11135759;26;20438;-41
2024/04/12 21:48:43;;;;;;;7.20;2.38;;;24.80;53.90;;;;;;11135730;26;20015;-42
2024/04/12 21:53:47;;;;;;;5.32;2.55;;;24.90;54.00;;;;;;11135479;26;20357;-42
2024/04/12 21:58:53;;;;;;;4.57;2.58;;;24.80;54.30;;;;;;11139591;26;20476;-42
2024/04/12 22:03:56;;;;;;;4.47;2.20;;;24.80;55.30;;;;;;11142228;26;20011;-41
2024/04/12 22:08:59;;;;;;;3.88;2.20;;;24.70;55.50;;;;;;11142302;26;20008;-41
2024/04/12 22:14:05;;;;;;;5.90;2.30;;;24.70;55.30;;;;;;11142120;26;20083;-41
2024/04/12 22:19:09;;;;;;;5.15;2.40;;;24.70;55.60;;;;;;11142036;26;20000;-41
2024/04/12 22:24:12;;;;;;;7.80;2.45;;;24.60;55.60;;;;;;11142057;26;19996;-42
2024/04/12 22:29:18;;;;;;;5.50;2.25;;;24.60;56.70;;;;;;11141675;26;20010;-42
2024/04/12 22:34:21;;;;;;;3.92;1.98;;;24.70;56.40;;;;;;11141476;26;20023;-42
2024/04/12 22:39:25;;;;;;;3.92;1.98;;;24.60;56.20;;;;;;11141525;26;20012;-42
2024/04/12 22:44:31;;;;;;;4.28;2.33;;;24.70;55.80;;;;;;11141099;26;20047;-41
2024/04/12 22:49:34;;;;;;;4.75;2.30;;;24.70;55.70;;;;;;11141175;26;20011;-42
2024/04/12 22:54:37;;;;;;;3.42;2.08;;;24.70;57.60;;;;;;11141591;26;20077;-41
2024/04/12 22:59:43;;;;;;;3.50;2.03;;;24.70;56.60;;;;;;11140910;26;20074;-41
2024/04/12 23:04:46;;;;;;;2.90;1.90;;;24.50;56.20;;;;;;11140587;26;19996;-42
2024/04/12 23:09:50;;;;;;;4.60;2.40;;;24.60;55.70;;;;;;11139970;26;20019;-42
2024/04/12 23:14:55;;;;;;;3.65;2.05;;;24.60;55.00;;;;;;11140445;26;20008;-41
2024/04/12 23:19:59;;;;;;;3.90;2.00;;;24.70;55.20;;;;;;11140218;26;20019;-42
2024/04/12 23:25:04;;;;;;;4.63;2.00;;;24.60;55.00;;;;;;11141131;26;20000;-42
2024/04/12 23:30:11;;;;;;;3.67;2.00;;;24.50;54.40;;;;;;11139985;26;20457;-42
2024/04/12 23:35:14;;;;;;;4.72;2.35;;;24.50;54.30;;;;;;11139822;26;20480;-42
2024/04/12 23:40:17;;;;;;;3.38;1.63;;;24.50;54.40;;;;;;11139766;26;19996;-42
2024/04/12 23:45:23;;;;;;;2.47;1.70;;;24.50;54.10;;;;;;11139509;26;20004;-42
2024/04/12 23:50:27;;;;;;;4.85;2.10;;;24.50;55.20;;;;;;11139461;26;20011;-42
2024/04/12 23:55:32;;;;;;;2.85;2.00;;;24.50;54.20;;;;;;11139257;26;19996;-42
